Agnew, Washington
Current Conditions -  °F | °C
As of 11:53 AM on Sunday 23 Nov 2014 (Local Time) from KCLM Reporting Station
Light Rain Light Rain  
Wind Chill: 42°   Ceiling: Unl
Heat Index: 48°   Visibility: 10mi
Dew Point: 39°   Wind: 16mph
Humidity: 71%   Direction: 260°W
Pressure: 30.12"   Gusts: NA
Location:  48.0203°N, 123.478°W
Report Text: KCLM 231953Z AUTO 26014KT 10SM -RA FEW017 FEW075 09/04 A3012 RMK AO2 PK WND 26027/1859 RAB1859E11B44 SLP201 P0000 T00890039 $
Loading
Personal Weather Stations






























Interactive Weather Map New forecast layout! Learn more

10-Day Weather Forecast

Advertisements
Track Severe Weather on mobile